createdAt,value
2019-01-02T00:01:15.498Z,77.02
2019-01-02T00:03:42.988Z,79.26
2019-01-02T00:06:10.451Z,81.04
2019-01-02T00:08:37.991Z,80.12
2019-01-02T00:11:05.496Z,78.15
2019-01-02T00:13:33.610Z,78.69
2019-01-02T00:16:01.113Z,81.27
2019-01-02T00:18:28.761Z,79.77
2019-01-02T00:20:56.280Z,79.28
2019-01-02T00:23:23.979Z,77.75
2019-01-02T00:25:51.462Z,77.75
2019-01-02T00:28:19.378Z,77.02
2019-01-02T00:30:46.856Z,81.82
2019-01-02T00:33:14.530Z,81.12
2019-01-02T00:35:42.031Z,79.23
2019-01-02T00:38:09.545Z,80.36
2019-01-02T00:40:37.151Z,84.54
2019-01-02T00:43:04.649Z,82.78
2019-01-02T00:45:32.108Z,81.48
2019-01-02T00:47:59.525Z,80.80
2019-01-02T00:50:27.254Z,76.76
2019-01-02T00:52:54.741Z,77.30
2019-01-02T00:55:22.235Z,76.92
2019-01-02T00:57:49.895Z,78.01
2019-01-02T01:00:38.355Z,77.23
2019-01-02T01:05:46.169Z,77.95
2019-01-02T01:08:13.851Z,78.66
2019-01-02T01:10:43.608Z,78.27
2019-01-02T01:13:11.308Z,81.14
2019-01-02T01:15:39.361Z,82.18
2019-01-02T01:18:06.942Z,83.02
2019-01-02T01:20:36.368Z,82.36
2019-01-02T01:23:03.841Z,81.05
2019-01-02T01:25:33.214Z,77.13
2019-01-02T01:28:01.129Z,81.47
2019-01-02T01:30:29.048Z,79.94
2019-01-02T01:32:56.696Z,81.29
2019-01-02T01:35:24.175Z,78.23
2019-01-02T01:37:55.113Z,76.92
2019-01-02T01:40:22.828Z,77.17
2019-01-02T01:42:50.358Z,79.95
2019-01-02T01:45:19.731Z,78.83
2019-01-02T01:47:47.276Z,79.44
2019-01-02T01:50:15.355Z,82.55
2019-01-02T01:52:42.853Z,79.55
2019-01-02T01:55:10.367Z,78.13
2019-01-02T01:57:38.167Z,80.81
2019-01-02T02:00:27.085Z,83.43
2019-01-02T02:05:34.937Z,79.35
2019-01-02T02:08:02.433Z,77.52
2019-01-02T02:10:29.919Z,78.98
2019-01-02T02:12:59.341Z,77.22
2019-01-02T02:15:26.861Z,79.29
2019-01-02T02:17:56.281Z,77.64
2019-01-02T02:20:24.018Z,75.92
2019-01-02T02:22:51.463Z,81.54
2019-01-02T02:25:20.401Z,79.77
2019-01-02T02:27:47.860Z,78.53
2019-01-02T02:30:15.864Z,80.27
2019-01-02T02:32:44.502Z,76.09
2019-01-02T02:35:13.946Z,75.27
2019-01-02T02:37:41.425Z,75.91
2019-01-02T02:40:10.130Z,76.36
2019-01-02T02:42:37.622Z,76.06
2019-01-02T02:45:08.538Z,76.82
2019-01-02T02:47:36.369Z,74.22
2019-01-02T02:50:05.032Z,76.86
2019-01-02T02:52:32.481Z,75.59
2019-01-02T02:54:59.958Z,76.01
2019-01-02T02:57:27.419Z,77.80
2019-01-02T02:59:54.790Z,78.51
2019-01-02T03:02:22.320Z,76.03
2019-01-02T03:04:49.797Z,78.77
2019-01-02T03:07:19.176Z,76.45
2019-01-02T03:09:46.917Z,75.49
2019-01-02T03:12:14.592Z,76.45
2019-01-02T03:14:42.150Z,82.72
2019-01-02T03:17:09.679Z,85.48
2019-01-02T03:19:37.456Z,80.71
2019-01-02T03:22:17.981Z,80.91
2019-01-02T03:24:45.971Z,78.23
2019-01-02T03:27:13.627Z,77.33
2019-01-02T03:29:41.112Z,76.60
2019-01-02T03:32:08.629Z,76.64
2019-01-02T03:34:36.316Z,75.78
2019-01-02T03:37:04.013Z,75.08
2019-01-02T03:39:31.407Z,75.33
2019-01-02T03:41:58.859Z,76.01
2019-01-02T03:44:26.474Z,77.95
2019-01-02T03:46:53.956Z,76.88
2019-01-02T03:49:21.409Z,75.42
2019-01-02T03:51:48.859Z,77.11
2019-01-02T03:54:16.292Z,75.13
2019-01-02T03:56:43.785Z,77.13
2019-01-02T03:59:11.222Z,77.26
2019-01-02T04:01:38.622Z,78.77
2019-01-02T04:04:06.056Z,78.70
2019-01-02T04:06:33.514Z,78.34
2019-01-02T04:09:00.948Z,75.67
2019-01-02T04:11:28.411Z,74.50
2019-01-02T04:13:55.874Z,76.22
2019-01-02T04:16:23.424Z,73.47
2019-01-02T04:18:50.880Z,75.76
2019-01-02T04:21:18.365Z,74.29
2019-01-02T04:23:45.866Z,75.23
2019-01-02T04:26:13.425Z,76.82
2019-01-02T04:28:40.807Z,75.09
2019-01-02T04:31:08.387Z,76.99
2019-01-02T04:33:35.842Z,75.59
2019-01-02T04:36:03.273Z,75.75
2019-01-02T04:38:30.744Z,78.61
2019-01-02T04:40:58.247Z,76.54
2019-01-02T04:43:25.672Z,75.50
2019-01-02T04:45:53.205Z,78.67
2019-01-02T04:48:20.659Z,77.19
2019-01-02T04:50:48.163Z,76.17
2019-01-02T04:53:15.581Z,76.48
2019-01-02T04:55:43.120Z,74.56
2019-01-02T04:58:11.030Z,75.19
2019-01-02T05:00:38.739Z,76.54
2019-01-02T05:03:06.278Z,75.81
2019-01-02T05:05:33.722Z,77.65
2019-01-02T05:08:01.147Z,76.98
2019-01-02T05:10:28.622Z,76.08
2019-01-02T05:12:56.102Z,75.54
2019-01-02T05:15:23.620Z,75.45
2019-01-02T05:17:51.191Z,75.72
2019-01-02T05:20:18.677Z,76.35
2019-01-02T05:22:46.211Z,76.94
2019-01-02T05:25:13.724Z,78.86
2019-01-02T05:27:41.240Z,78.35
2019-01-02T05:30:11.559Z,77.44
2019-01-02T05:32:38.985Z,78.03
2019-01-02T05:35:07.414Z,80.12
2019-01-02T05:37:34.883Z,78.00
2019-01-02T05:40:02.340Z,78.89
2019-01-02T05:42:29.900Z,78.01
2019-01-02T05:45:16.788Z,75.77
2019-01-02T05:50:24.990Z,83.36
2019-01-02T05:52:53.136Z,84.76
2019-01-02T05:55:20.651Z,84.67
2019-01-02T05:57:48.126Z,81.24
2019-01-02T06:03:01.449Z,76.49
2019-01-02T06:05:29.334Z,75.28
2019-01-02T06:07:57.117Z,77.28
2019-01-02T06:10:24.558Z,77.97
2019-01-02T06:12:52.145Z,77.11
2019-01-02T06:15:19.708Z,77.11
2019-01-02T06:17:47.582Z,73.95
2019-01-02T06:20:16.784Z,79.42
2019-01-02T06:22:44.404Z,74.36
2019-01-02T06:25:11.934Z,74.27
2019-01-02T06:27:39.469Z,71.72
2019-01-02T06:30:29.480Z,79.67
2019-01-02T06:32:57.301Z,75.86
2019-01-02T06:35:24.820Z,75.58
2019-01-02T06:37:52.652Z,77.45
2019-01-02T06:40:20.335Z,74.96
2019-01-02T06:42:47.976Z,77.20
2019-01-02T06:45:17.546Z,72.11
2019-01-02T06:47:45.303Z,73.25
2019-01-02T06:50:16.225Z,73.33
2019-01-02T06:52:43.703Z,76.04
2019-01-02T06:55:11.174Z,75.36
2019-01-02T06:57:38.650Z,73.87
2019-01-02T07:00:09.937Z,69.59
2019-01-02T07:02:37.507Z,70.18
2019-01-02T07:05:05.917Z,73.89
2019-01-02T07:07:33.427Z,68.23
2019-01-02T07:10:01.212Z,66.74
2019-01-02T07:12:28.803Z,67.78
2019-01-02T07:14:56.377Z,69.29
2019-01-02T07:17:23.853Z,70.90
2019-01-02T07:19:51.314Z,72.14
2019-01-02T07:22:19.079Z,73.63
2019-01-02T07:24:48.930Z,74.38
2019-01-02T07:27:16.612Z,78.11
2019-01-02T07:29:44.312Z,74.03
2019-01-02T07:32:12.078Z,77.45
2019-01-02T07:35:18.763Z,72.70
2019-01-02T07:38:24.984Z,72.42
2019-01-02T07:41:31.403Z,72.51
2019-01-02T07:44:37.728Z,75.53
2019-01-02T07:47:44.329Z,78.80
2019-01-02T07:50:50.692Z,74.36
2019-01-02T07:53:57.004Z,73.94
2019-01-02T07:57:03.332Z,75.37
2019-01-02T08:00:09.852Z,72.95
2019-01-02T08:03:02.260Z,70.80
2019-01-02T08:06:08.592Z,70.12
2019-01-02T08:09:16.303Z,71.28
2019-01-02T08:12:22.857Z,74.17
2019-01-02T08:15:27.006Z,73.02
2019-01-02T08:18:34.920Z,74.99
2019-01-02T08:22:05.787Z,70.43
2019-01-02T08:25:04.804Z,71.23
2019-01-02T08:28:35.618Z,71.03
2019-01-02T08:31:47.861Z,77.20
2019-01-02T08:34:53.477Z,69.95
2019-01-02T08:38:08.509Z,70.93
2019-01-02T08:41:02.226Z,67.10
2019-01-02T08:44:08.164Z,69.92
2019-01-02T08:47:14.710Z,65.67
2019-01-02T08:50:12.573Z,67.07
2019-01-02T08:53:10.069Z,65.88
2019-01-02T08:56:12.838Z,67.15
2019-01-02T08:59:18.731Z,66.85
2019-01-02T09:02:36.102Z,67.87
2019-01-02T09:05:42.595Z,66.65
2019-01-02T09:08:46.687Z,66.04
2019-01-02T09:11:51.533Z,68.16
2019-01-02T09:14:56.884Z,64.23
2019-01-02T09:18:21.382Z,65.23
2019-01-02T09:21:20.876Z,67.84
2019-01-02T09:24:33.632Z,70.66
2019-01-02T09:27:46.850Z,63.19
2019-01-02T09:30:47.209Z,61.70
2019-01-02T09:33:36.881Z,61.84
2019-01-02T09:36:48.684Z,61.40
2019-01-02T09:39:36.576Z,60.97
2019-01-02T09:42:27.656Z,61.09
2019-01-02T09:45:46.152Z,61.10
2019-01-02T09:49:10.103Z,60.35
2019-01-02T09:52:23.260Z,60.11
2019-01-02T09:55:15.677Z,61.66
2019-01-02T09:58:35.529Z,60.12
2019-01-02T10:01:24.498Z,60.09
2019-01-02T10:04:32.470Z,57.43
2019-01-02T10:07:38.594Z,58.04
2019-01-02T10:10:56.575Z,61.02
2019-01-02T10:14:10.632Z,58.24
2019-01-02T10:17:14.341Z,61.53
2019-01-02T10:20:19.417Z,56.34
2019-01-02T10:23:13.056Z,55.74
2019-01-02T10:25:57.713Z,54.40
2019-01-02T10:29:09.211Z,53.80
2019-01-02T10:32:24.476Z,53.90
2019-01-02T10:35:11.841Z,52.94
2019-01-02T10:38:13.066Z,50.58
2019-01-02T10:41:24.675Z,52.44
2019-01-02T10:44:29.919Z,53.16
2019-01-02T10:47:36.576Z,54.85
2019-01-02T10:50:41.491Z,55.61
2019-01-02T10:53:38.522Z,55.80
2019-01-02T10:56:39.083Z,56.75
2019-01-02T10:59:31.228Z,56.86
2019-01-02T11:02:21.519Z,57.60
2019-01-02T11:05:25.942Z,57.09
2019-01-02T11:08:46.542Z,57.79
2019-01-02T11:11:58.442Z,57.00
2019-01-02T11:14:57.615Z,58.41
2019-01-02T11:17:54.429Z,57.32
2019-01-02T11:20:59.729Z,56.06
2019-01-02T11:24:18.028Z,56.59
2019-01-02T11:27:25.597Z,57.22
2019-01-02T11:30:55.918Z,55.59
2019-01-02T11:34:09.137Z,55.88
2019-01-02T11:37:19.988Z,54.02
2019-01-02T11:40:15.951Z,54.38
2019-01-02T11:43:11.625Z,54.50
2019-01-02T11:45:40.126Z,54.14
2019-01-02T11:48:08.117Z,55.84
2019-01-02T11:50:35.964Z,54.53
2019-01-02T11:53:04.055Z,56.54
2019-01-02T11:55:31.975Z,54.66
2019-01-02T11:57:59.972Z,54.59
2019-01-02T12:00:28.056Z,54.49
2019-01-02T12:02:56.072Z,56.53
2019-01-02T12:05:24.180Z,55.46
2019-01-02T12:07:53.258Z,55.62
2019-01-02T12:10:21.791Z,56.12
2019-01-02T12:12:49.761Z,55.45
2019-01-02T12:15:17.555Z,54.78
2019-01-02T12:17:45.479Z,54.45
2019-01-02T12:20:13.337Z,53.92
2019-01-02T12:22:41.071Z,53.79
2019-01-02T12:25:08.504Z,53.73
2019-01-02T12:27:37.028Z,54.40
2019-01-02T12:30:08.600Z,53.99
2019-01-02T12:32:39.761Z,55.51
2019-01-02T12:35:07.829Z,53.70
2019-01-02T12:37:35.816Z,52.77
2019-01-02T12:40:03.923Z,54.18
2019-01-02T12:42:31.868Z,55.00
2019-01-02T12:44:59.829Z,55.34
2019-01-02T12:47:33.023Z,53.31
2019-01-02T12:50:12.154Z,53.73
2019-01-02T12:52:39.902Z,53.90
2019-01-02T12:55:07.655Z,56.76
2019-01-02T12:57:35.125Z,55.67
2019-01-02T13:03:42.664Z,54.58
2019-01-02T13:06:49.051Z,54.98
2019-01-02T13:09:55.306Z,55.41
2019-01-02T13:12:49.249Z,55.16
2019-01-02T13:15:49.433Z,55.19
2019-01-02T13:18:55.681Z,54.34
2019-01-02T13:21:46.710Z,54.62
2019-01-02T13:24:53.872Z,55.61
2019-01-02T13:28:02.670Z,54.15
2019-01-02T13:31:10.841Z,54.02
2019-01-02T13:34:18.462Z,54.11
2019-01-02T13:37:24.745Z,54.64
2019-01-02T13:40:31.535Z,54.97
2019-01-02T13:43:25.193Z,55.49
2019-01-02T13:46:31.422Z,55.44
2019-01-02T13:49:38.056Z,56.16
2019-01-02T13:52:05.606Z,57.02
2019-01-02T13:54:33.920Z,57.79
2019-01-02T13:57:03.418Z,57.87
2019-01-02T13:59:30.872Z,58.21
2019-01-02T14:01:59.430Z,59.47
2019-01-02T14:07:06.982Z,59.04
2019-01-02T14:09:34.901Z,59.87
2019-01-02T14:12:02.892Z,59.97
2019-01-02T14:14:30.520Z,60.67
2019-01-02T14:16:57.902Z,61.01
2019-01-02T14:19:25.535Z,61.39
2019-01-02T14:21:53.115Z,61.80
2019-01-02T14:24:20.598Z,62.03
2019-01-02T14:26:48.172Z,62.51
2019-01-02T14:29:15.611Z,63.54
2019-01-02T14:31:43.236Z,63.96
2019-01-02T14:34:10.672Z,63.41
2019-01-02T14:36:38.326Z,63.90
2019-01-02T14:39:07.053Z,63.95
2019-01-02T14:41:34.495Z,64.22
2019-01-02T14:44:23.180Z,64.64
2019-01-02T14:46:51.007Z,64.73
2019-01-02T14:49:18.639Z,65.30
2019-01-02T14:51:46.132Z,64.57
2019-01-02T14:54:13.730Z,65.62
2019-01-02T14:56:41.320Z,65.62
2019-01-02T14:59:08.888Z,65.67
2019-01-02T15:01:36.802Z,66.60
2019-01-02T15:04:04.565Z,67.39
2019-01-02T15:06:32.246Z,67.55
2019-01-02T15:08:59.845Z,66.91
2019-01-02T15:11:27.366Z,67.52
2019-01-02T15:13:55.275Z,67.39
2019-01-02T15:16:23.151Z,67.22
2019-01-02T15:18:50.634Z,67.76
2019-01-02T15:21:18.166Z,67.11
2019-01-02T15:23:46.099Z,68.17
2019-01-02T15:26:13.835Z,67.18
2019-01-02T15:28:41.849Z,67.57
2019-01-02T15:31:10.056Z,68.48
2019-01-02T15:33:37.596Z,68.11
2019-01-02T15:36:05.156Z,69.32
2019-01-02T15:38:32.960Z,69.32
2019-01-02T15:41:00.690Z,71.08
2019-01-02T15:43:28.245Z,70.29
2019-01-02T15:45:56.341Z,69.45
2019-01-02T15:48:23.899Z,69.37
2019-01-02T15:50:51.340Z,69.33
2019-01-02T15:53:18.746Z,70.01
2019-01-02T15:55:46.375Z,70.20
2019-01-02T15:58:13.888Z,70.56
2019-01-02T16:00:41.561Z,68.64
2019-01-02T16:03:09.204Z,69.92
2019-01-02T16:05:36.911Z,72.08
2019-01-02T16:08:04.310Z,70.03
2019-01-02T16:10:32.916Z,69.86
2019-01-02T16:13:00.367Z,69.84
2019-01-02T16:15:27.776Z,70.28
2019-01-02T16:17:55.890Z,71.91
2019-01-02T16:20:23.374Z,70.77
2019-01-02T16:22:50.922Z,71.17
2019-01-02T16:25:20.527Z,70.48
2019-01-02T16:27:47.916Z,69.65
2019-01-02T16:30:15.589Z,68.32
2019-01-02T16:32:43.070Z,68.11
2019-01-02T16:35:10.795Z,71.31
2019-01-02T16:37:38.539Z,66.76
2019-01-02T16:40:09.157Z,68.62
2019-01-02T16:42:50.592Z,67.03
2019-01-02T16:45:18.300Z,66.52
2019-01-02T16:47:46.042Z,66.37
2019-01-02T16:50:13.772Z,66.69
2019-01-02T16:52:41.795Z,64.79
2019-01-02T16:55:09.392Z,63.60
2019-01-02T16:57:37.004Z,63.29
2019-01-02T17:00:06.296Z,64.06
2019-01-02T17:02:34.048Z,64.31
2019-01-02T17:05:01.663Z,63.44
2019-01-02T17:07:29.359Z,63.12
2019-01-02T17:09:56.845Z,62.31
2019-01-02T17:12:24.328Z,61.55
2019-01-02T17:14:51.762Z,62.32
2019-01-02T17:17:19.141Z,61.68
2019-01-02T17:19:46.585Z,61.04
2019-01-02T17:22:14.190Z,60.87
2019-01-02T17:24:44.797Z,62.20
2019-01-02T17:27:12.378Z,61.17
2019-01-02T17:29:39.955Z,61.49
2019-01-02T17:32:07.599Z,61.91
2019-01-02T17:34:35.712Z,61.68
2019-01-02T17:37:03.985Z,62.45
2019-01-02T17:39:44.132Z,61.49
2019-01-02T17:42:12.035Z,62.62
2019-01-02T17:44:39.491Z,61.60
2019-01-02T17:47:07.035Z,62.30
2019-01-02T17:49:34.809Z,63.10
2019-01-02T17:52:02.736Z,63.19
2019-01-02T17:54:30.332Z,63.59
2019-01-02T17:56:57.860Z,64.10
2019-01-02T17:59:25.329Z,63.74
2019-01-02T18:01:53.115Z,62.46
2019-01-02T18:04:20.811Z,63.60
2019-01-02T18:06:48.431Z,62.83
2019-01-02T18:09:16.038Z,63.38
2019-01-02T18:11:52.858Z,64.17
2019-01-02T18:14:20.784Z,63.24
2019-01-02T18:17:08.218Z,64.20
2019-01-02T18:19:37.259Z,62.45
2019-01-02T18:22:05.028Z,62.86
2019-01-02T18:24:32.672Z,62.70
2019-01-02T18:27:00.474Z,62.58
2019-01-02T18:29:28.384Z,63.14
2019-01-02T18:31:56.173Z,63.69
2019-01-02T18:37:06.504Z,64.91
2019-01-02T18:39:53.825Z,64.34
2019-01-02T18:42:22.921Z,64.04
2019-01-02T18:44:50.532Z,64.77
2019-01-02T18:47:18.787Z,64.64
2019-01-02T18:49:46.203Z,65.83
2019-01-02T18:52:13.766Z,65.35
2019-01-02T18:54:41.276Z,66.44
2019-01-02T18:57:08.849Z,66.32
2019-01-02T18:59:36.532Z,66.05
2019-01-02T19:02:04.236Z,65.33
2019-01-02T19:04:32.362Z,65.28
2019-01-02T19:07:00.188Z,65.02
2019-01-02T19:09:28.492Z,64.91
2019-01-02T19:11:56.086Z,65.83
2019-01-02T19:14:23.577Z,65.50
2019-01-02T19:16:51.085Z,65.72
2019-01-02T19:19:18.629Z,67.02
2019-01-02T19:21:46.203Z,66.87
2019-01-02T19:24:13.674Z,66.67
2019-01-02T19:26:41.223Z,67.45
2019-01-02T19:29:08.815Z,68.52
2019-01-02T19:31:36.298Z,67.00
2019-01-02T19:34:03.896Z,68.69
2019-01-02T19:36:31.310Z,66.73
2019-01-02T19:38:58.819Z,66.53
2019-01-02T19:41:26.405Z,66.66
2019-01-02T19:44:05.443Z,66.55
2019-01-02T19:46:33.138Z,67.42
2019-01-02T19:49:00.776Z,67.10
2019-01-02T19:51:28.255Z,67.87
2019-01-02T19:53:55.755Z,67.03
2019-01-02T19:56:23.499Z,67.41
2019-01-02T19:58:50.950Z,68.90
2019-01-02T20:01:18.569Z,68.11
2019-01-02T20:03:46.022Z,68.97
2019-01-02T20:06:13.573Z,68.78
2019-01-02T20:08:41.182Z,69.46
2019-01-02T20:11:08.746Z,69.57
2019-01-02T20:13:36.307Z,72.02
2019-01-02T20:16:04.105Z,68.81
2019-01-02T20:18:31.769Z,71.42
2019-01-02T20:20:59.343Z,68.13
2019-01-02T20:23:26.829Z,69.00
2019-01-02T20:25:54.497Z,70.05
2019-01-02T20:28:22.009Z,68.45
2019-01-02T20:30:49.468Z,70.64
2019-01-02T20:33:16.998Z,67.69
2019-01-02T20:35:44.553Z,68.55
2019-01-02T20:38:12.498Z,68.03
2019-01-02T20:40:40.092Z,68.41
2019-01-02T20:43:07.606Z,69.34
2019-01-02T20:45:35.307Z,69.01
2019-01-02T20:48:14.226Z,69.13
2019-01-02T20:50:42.039Z,68.72
2019-01-02T20:53:09.597Z,68.63
2019-01-02T20:55:37.260Z,67.92
2019-01-02T20:58:04.848Z,68.41
2019-01-02T21:00:32.304Z,69.59
2019-01-02T21:02:59.750Z,69.22
2019-01-02T21:05:27.260Z,69.77
2019-01-02T21:07:54.914Z,69.54
2019-01-02T21:10:22.690Z,69.35
2019-01-02T21:12:50.186Z,69.29
2019-01-02T21:15:17.913Z,70.90
2019-01-02T21:17:45.430Z,71.09
2019-01-02T21:20:12.940Z,69.93
2019-01-02T21:22:40.602Z,70.02
2019-01-02T21:25:08.799Z,70.34
2019-01-02T21:27:36.410Z,71.49
2019-01-02T21:30:25.429Z,69.93
2019-01-02T21:32:53.501Z,70.26
2019-01-02T21:35:20.964Z,69.79
2019-01-02T21:37:48.561Z,72.57
2019-01-02T21:40:16.378Z,71.41
2019-01-02T21:42:44.056Z,69.81
2019-01-02T21:47:58.019Z,70.16
2019-01-02T21:50:25.939Z,69.85
2019-01-02T21:52:53.517Z,69.52
2019-01-02T21:55:21.073Z,69.44
2019-01-02T21:57:48.566Z,69.53
2019-01-02T22:00:16.342Z,69.63
2019-01-02T22:02:43.864Z,69.53
2019-01-02T22:05:11.622Z,71.53
2019-01-02T22:07:39.174Z,69.51
2019-01-02T22:10:07.296Z,68.43
2019-01-02T22:12:34.874Z,68.62
2019-01-02T22:15:02.487Z,68.74
2019-01-02T22:17:30.016Z,69.24
2019-01-02T22:19:57.605Z,70.22
2019-01-02T22:22:25.151Z,69.33
2019-01-02T22:24:52.621Z,70.26
2019-01-02T22:27:21.038Z,71.98
2019-01-02T22:29:50.197Z,70.42
2019-01-02T22:32:17.767Z,70.30
2019-01-02T22:34:45.393Z,73.09
2019-01-02T22:37:13.001Z,70.43
2019-01-02T22:39:40.541Z,70.25
2019-01-02T22:42:08.066Z,72.43
2019-01-02T22:44:35.695Z,71.80
2019-01-02T22:47:03.485Z,69.26
2019-01-02T22:52:11.959Z,67.89
2019-01-02T22:54:39.472Z,69.01
2019-01-02T22:57:07.043Z,72.12
2019-01-02T22:59:34.591Z,68.74
2019-01-02T23:02:07.798Z,69.10
2019-01-02T23:04:54.784Z,69.33
2019-01-02T23:07:41.872Z,68.90
2019-01-02T23:10:28.940Z,71.26
2019-01-02T23:13:15.991Z,69.15
2019-01-02T23:16:03.615Z,70.81
2019-01-02T23:18:43.863Z,69.78
2019-01-02T23:21:31.607Z,69.49
2019-01-02T23:24:20.550Z,70.81
2019-01-02T23:27:07.564Z,70.94
2019-01-02T23:29:54.569Z,70.47
2019-01-02T23:32:41.706Z,70.70
2019-01-02T23:35:28.843Z,69.38
2019-01-02T23:38:15.963Z,70.83
2019-01-02T23:41:03.006Z,69.95
2019-01-02T23:43:50.127Z,68.96
2019-01-02T23:46:37.385Z,71.36
2019-01-02T23:49:24.503Z,69.17
2019-01-02T23:52:03.914Z,69.85
2019-01-02T23:54:51.075Z,69.66
2019-01-02T23:57:38.235Z,71.20
